sensor_id;sensor_type;location;lat;lon;timestamp;temperature;humidity
2639;DHT22;1329;51.384;7.122;2024-01-25T00:00:42;10.80;99.90
2639;DHT22;1329;51.384;7.122;2024-01-25T00:03:09;10.80;99.90
2639;DHT22;1329;51.384;7.122;2024-01-25T00:05:36;10.80;99.90
2639;DHT22;1329;51.384;7.122;2024-01-25T00:08:04;10.80;99.90
2639;DHT22;1329;51.384;7.122;2024-01-25T00:10:34;10.70;99.90
2639;DHT22;1329;51.384;7.122;2024-01-25T00:13:01;10.80;99.90
2639;DHT22;1329;51.384;7.122;2024-01-25T00:15:28;10.80;99.90
2639;DHT22;1329;51.384;7.122;2024-01-25T00:17:55;10.80;99.90
2639;DHT22;1329;51.384;7.122;2024-01-25T00:20:24;10.80;99.90
2639;DHT22;1329;51.384;7.122;2024-01-25T00:22:51;10.80;99.90
2639;DHT22;1329;51.384;7.122;2024-01-25T00:25:19;10.80;99.90
2639;DHT22;1329;51.384;7.122;2024-01-25T00:27:47;10.80;99.90
2639;DHT22;1329;51.384;7.122;2024-01-25T00:30:15;10.80;99.90
2639;DHT22;1329;51.384;7.122;2024-01-25T00:32:42;10.80;99.90
2639;DHT22;1329;51.384;7.122;2024-01-25T00:35:11;10.80;99.90
2639;DHT22;1329;51.384;7.122;2024-01-25T00:37:40;10.80;99.90
2639;DHT22;1329;51.384;7.122;2024-01-25T00:40:10;10.80;99.90
2639;DHT22;1329;51.384;7.122;2024-01-25T00:42:42;10.80;99.90
2639;DHT22;1329;51.384;7.122;2024-01-25T00:45:12;10.70;99.90
2639;DHT22;1329;51.384;7.122;2024-01-25T00:47:40;10.80;99.90
2639;DHT22;1329;51.384;7.122;2024-01-25T00:50:08;10.80;99.90
2639;DHT22;1329;51.384;7.122;2024-01-25T00:52:37;10.80;99.90
2639;DHT22;1329;51.384;7.122;2024-01-25T00:55:06;10.80;99.90
2639;DHT22;1329;51.384;7.122;2024-01-25T00:57:34;10.80;99.90
2639;DHT22;1329;51.384;7.122;2024-01-25T01:00:02;10.80;99.90
2639;DHT22;1329;51.384;7.122;2024-01-25T01:02:36;10.80;99.90
2639;DHT22;1329;51.384;7.122;2024-01-25T01:05:08;10.70;99.90
2639;DHT22;1329;51.384;7.122;2024-01-25T01:07:36;10.70;99.90
2639;DHT22;1329;51.384;7.122;2024-01-25T01:10:07;10.70;99.90
2639;DHT22;1329;51.384;7.122;2024-01-25T01:12:35;10.70;99.90
2639;DHT22;1329;51.384;7.122;2024-01-25T01:15:03;10.60;99.90
2639;DHT22;1329;51.384;7.122;2024-01-25T01:17:33;10.60;99.90
2639;DHT22;1329;51.384;7.122;2024-01-25T01:20:00;10.60;99.90
2639;DHT22;1329;51.384;7.122;2024-01-25T01:22:27;10.50;99.90
2639;DHT22;1329;51.384;7.122;2024-01-25T01:24:55;10.50;99.90
2639;DHT22;1329;51.384;7.122;2024-01-25T01:27:23;10.50;99.90
2639;DHT22;1329;51.384;7.122;2024-01-25T01:29:58;10.40;99.90
2639;DHT22;1329;51.384;7.122;2024-01-25T01:32:25;10.40;99.90
2639;DHT22;1329;51.384;7.122;2024-01-25T01:34:54;10.30;99.90
2639;DHT22;1329;51.384;7.122;2024-01-25T01:37:22;10.30;99.90
2639;DHT22;1329;51.384;7.122;2024-01-25T01:39:49;10.30;99.90
2639;DHT22;1329;51.384;7.122;2024-01-25T01:42:16;10.20;99.90
2639;DHT22;1329;51.384;7.122;2024-01-25T01:44:44;10.20;99.90
2639;DHT22;1329;51.384;7.122;2024-01-25T01:47:11;10.20;99.90
2639;DHT22;1329;51.384;7.122;2024-01-25T01:49:39;10.20;99.90
2639;DHT22;1329;51.384;7.122;2024-01-25T01:52:08;10.20;99.90
2639;DHT22;1329;51.384;7.122;2024-01-25T01:54:36;10.20;99.90
2639;DHT22;1329;51.384;7.122;2024-01-25T01:57:04;10.10;99.90
2639;DHT22;1329;51.384;7.122;2024-01-25T01:59:33;10.20;99.90
2639;DHT22;1329;51.384;7.122;2024-01-25T02:02:01;10.20;99.90
2639;DHT22;1329;51.384;7.122;2024-01-25T02:04:28;10.10;99.90
2639;DHT22;1329;51.384;7.122;2024-01-25T02:06:56;10.20;99.90
2639;DHT22;1329;51.384;7.122;2024-01-25T02:09:24;10.20;99.90
2639;DHT22;1329;51.384;7.122;2024-01-25T02:11:59;10.20;99.90
2639;DHT22;1329;51.384;7.122;2024-01-25T02:14:27;10.20;99.90
2639;DHT22;1329;51.384;7.122;2024-01-25T02:16:55;10.20;99.90
2639;DHT22;1329;51.384;7.122;2024-01-25T02:19:22;10.20;99.90
2639;DHT22;1329;51.384;7.122;2024-01-25T02:21:51;10.20;99.90
2639;DHT22;1329;51.384;7.122;2024-01-25T02:24:22;10.20;99.90
2639;DHT22;1329;51.384;7.122;2024-01-25T02:26:49;10.30;99.90
2639;DHT22;1329;51.384;7.122;2024-01-25T02:29:17;10.30;99.90
2639;DHT22;1329;51.384;7.122;2024-01-25T02:31:44;10.30;99.90
2639;DHT22;1329;51.384;7.122;2024-01-25T02:34:12;10.30;99.90
2639;DHT22;1329;51.384;7.122;2024-01-25T02:36:39;10.30;99.90
2639;DHT22;1329;51.384;7.122;2024-01-25T02:39:06;10.30;99.90
2639;DHT22;1329;51.384;7.122;2024-01-25T02:41:36;10.30;99.90
2639;DHT22;1329;51.384;7.122;2024-01-25T02:44:03;10.30;99.90
2639;DHT22;1329;51.384;7.122;2024-01-25T02:46:31;10.30;99.90
2639;DHT22;1329;51.384;7.122;2024-01-25T02:48:58;10.30;99.90
2639;DHT22;1329;51.384;7.122;2024-01-25T02:51:26;10.30;99.90
2639;DHT22;1329;51.384;7.122;2024-01-25T02:53:53;10.30;99.90
2639;DHT22;1329;51.384;7.122;2024-01-25T02:56:21;10.30;99.90
2639;DHT22;1329;51.384;7.122;2024-01-25T02:58:50;10.30;99.90
2639;DHT22;1329;51.384;7.122;2024-01-25T03:01:17;10.30;99.90
2639;DHT22;1329;51.384;7.122;2024-01-25T03:03:44;10.20;99.90
2639;DHT22;1329;51.384;7.122;2024-01-25T03:06:12;10.20;99.90
2639;DHT22;1329;51.384;7.122;2024-01-25T03:08:39;10.20;99.90
2639;DHT22;1329;51.384;7.122;2024-01-25T03:11:06;10.10;99.90
2639;DHT22;1329;51.384;7.122;2024-01-25T03:13:34;10.10;99.90
2639;DHT22;1329;51.384;7.122;2024-01-25T03:16:04;10.10;99.90
2639;DHT22;1329;51.384;7.122;2024-01-25T03:18:31;10.00;99.90
2639;DHT22;1329;51.384;7.122;2024-01-25T03:20:59;10.00;99.90
2639;DHT22;1329;51.384;7.122;2024-01-25T03:23:26;10.00;99.90
2639;DHT22;1329;51.384;7.122;2024-01-25T03:25:53;9.90;99.90
2639;DHT22;1329;51.384;7.122;2024-01-25T03:28:21;9.90;99.90
2639;DHT22;1329;51.384;7.122;2024-01-25T03:30:48;9.80;99.90
2639;DHT22;1329;51.384;7.122;2024-01-25T03:33:16;9.80;99.90
2639;DHT22;1329;51.384;7.122;2024-01-25T03:35:44;9.80;99.90
2639;DHT22;1329;51.384;7.122;2024-01-25T03:38:11;9.80;99.90
2639;DHT22;1329;51.384;7.122;2024-01-25T03:40:39;9.70;99.90
2639;DHT22;1329;51.384;7.122;2024-01-25T03:43:06;9.70;99.90
2639;DHT22;1329;51.384;7.122;2024-01-25T03:45:34;9.70;99.90
2639;DHT22;1329;51.384;7.122;2024-01-25T03:48:01;9.60;99.90
2639;DHT22;1329;51.384;7.122;2024-01-25T03:50:31;9.60;99.90
2639;DHT22;1329;51.384;7.122;2024-01-25T03:52:58;9.50;99.90
2639;DHT22;1329;51.384;7.122;2024-01-25T03:55:25;9.50;99.90
2639;DHT22;1329;51.384;7.122;2024-01-25T03:57:53;9.40;99.90
2639;DHT22;1329;51.384;7.122;2024-01-25T04:00:20;9.40;99.90
2639;DHT22;1329;51.384;7.122;2024-01-25T04:02:48;9.30;99.90
2639;DHT22;1329;51.384;7.122;2024-01-25T04:05:15;9.30;99.90
2639;DHT22;1329;51.384;7.122;2024-01-25T04:07:44;9.20;99.90
2639;DHT22;1329;51.384;7.122;2024-01-25T04:10:11;9.20;99.90
2639;DHT22;1329;51.384;7.122;2024-01-25T04:12:39;9.10;99.90
2639;DHT22;1329;51.384;7.122;2024-01-25T04:15:07;9.10;99.90
2639;DHT22;1329;51.384;7.122;2024-01-25T04:17:35;9.00;99.90
2639;DHT22;1329;51.384;7.122;2024-01-25T04:20:02;9.00;99.90
2639;DHT22;1329;51.384;7.122;2024-01-25T04:22:30;8.90;99.90
2639;DHT22;1329;51.384;7.122;2024-01-25T04:24:59;8.90;99.90
2639;DHT22;1329;51.384;7.122;2024-01-25T04:27:27;8.90;99.90
2639;DHT22;1329;51.384;7.122;2024-01-25T04:29:54;8.80;99.90
2639;DHT22;1329;51.384;7.122;2024-01-25T04:32:21;8.70;99.90
2639;DHT22;1329;51.384;7.122;2024-01-25T04:34:48;8.70;99.90
2639;DHT22;1329;51.384;7.122;2024-01-25T04:37:16;8.70;99.90
2639;DHT22;1329;51.384;7.122;2024-01-25T04:39:44;8.60;99.90
2639;DHT22;1329;51.384;7.122;2024-01-25T04:42:13;8.60;99.90
2639;DHT22;1329;51.384;7.122;2024-01-25T04:44:40;8.60;99.90
2639;DHT22;1329;51.384;7.122;2024-01-25T04:47:08;8.50;99.90
2639;DHT22;1329;51.384;7.122;2024-01-25T04:49:36;8.50;99.90
2639;DHT22;1329;51.384;7.122;2024-01-25T04:52:03;8.50;99.90
2639;DHT22;1329;51.384;7.122;2024-01-25T04:54:31;8.40;99.90
2639;DHT22;1329;51.384;7.122;2024-01-25T04:56:58;8.40;99.90
2639;DHT22;1329;51.384;7.122;2024-01-25T04:59:28;8.40;99.90
2639;DHT22;1329;51.384;7.122;2024-01-25T05:01:55;8.30;99.90
2639;DHT22;1329;51.384;7.122;2024-01-25T05:04:23;8.30;99.90
2639;DHT22;1329;51.384;7.122;2024-01-25T05:06:51;8.30;99.90
2639;DHT22;1329;51.384;7.122;2024-01-25T05:09:18;8.30;99.90
2639;DHT22;1329;51.384;7.122;2024-01-25T05:11:45;8.20;99.90
2639;DHT22;1329;51.384;7.122;2024-01-25T05:14:12;8.20;99.90
2639;DHT22;1329;51.384;7.122;2024-01-25T05:16:41;8.20;99.90
2639;DHT22;1329;51.384;7.122;2024-01-25T05:19:08;8.20;99.90
2639;DHT22;1329;51.384;7.122;2024-01-25T05:21:36;8.20;99.90
2639;DHT22;1329;51.384;7.122;2024-01-25T05:24:03;8.20;99.90
2639;DHT22;1329;51.384;7.122;2024-01-25T05:26:31;8.10;99.90
2639;DHT22;1329;51.384;7.122;2024-01-25T05:28:58;8.10;99.90
2639;DHT22;1329;51.384;7.122;2024-01-25T05:31:25;8.10;99.90
2639;DHT22;1329;51.384;7.122;2024-01-25T05:33:59;8.10;99.90
2639;DHT22;1329;51.384;7.122;2024-01-25T05:36:27;8.00;99.90
2639;DHT22;1329;51.384;7.122;2024-01-25T05:38:54;8.00;99.90
2639;DHT22;1329;51.384;7.122;2024-01-25T05:41:21;8.00;99.90
2639;DHT22;1329;51.384;7.122;2024-01-25T05:43:48;8.00;99.90
2639;DHT22;1329;51.384;7.122;2024-01-25T05:46:16;8.00;99.90
2639;DHT22;1329;51.384;7.122;2024-01-25T05:48:43;7.90;99.90
2639;DHT22;1329;51.384;7.122;2024-01-25T05:51:12;7.90;99.90
2639;DHT22;1329;51.384;7.122;2024-01-25T05:53:40;7.90;99.90
2639;DHT22;1329;51.384;7.122;2024-01-25T05:56:07;7.90;99.90
2639;DHT22;1329;51.384;7.122;2024-01-25T05:58:35;7.90;99.90
2639;DHT22;1329;51.384;7.122;2024-01-25T06:01:03;7.80;99.90
2639;DHT22;1329;51.384;7.122;2024-01-25T06:03:31;7.80;99.90
2639;DHT22;1329;51.384;7.122;2024-01-25T06:05:58;7.80;99.90
2639;DHT22;1329;51.384;7.122;2024-01-25T06:08:27;7.80;99.90
2639;DHT22;1329;51.384;7.122;2024-01-25T06:10:54;7.80;99.90
2639;DHT22;1329;51.384;7.122;2024-01-25T06:13:21;7.80;99.90
2639;DHT22;1329;51.384;7.122;2024-01-25T06:15:49;7.70;99.90
2639;DHT22;1329;51.384;7.122;2024-01-25T06:18:16;7.70;99.90
2639;DHT22;1329;51.384;7.122;2024-01-25T06:20:43;7.60;99.90
2639;DHT22;1329;51.384;7.122;2024-01-25T06:23:27;7.60;99.90
2639;DHT22;1329;51.384;7.122;2024-01-25T06:25:54;7.60;99.90
2639;DHT22;1329;51.384;7.122;2024-01-25T06:28:22;7.50;99.90
2639;DHT22;1329;51.384;7.122;2024-01-25T06:30:50;7.50;99.90
2639;DHT22;1329;51.384;7.122;2024-01-25T06:33:17;7.40;99.90
2639;DHT22;1329;51.384;7.122;2024-01-25T06:35:44;7.40;99.90
2639;DHT22;1329;51.384;7.122;2024-01-25T06:38:12;7.40;99.90
2639;DHT22;1329;51.384;7.122;2024-01-25T06:40:41;7.30;99.90
2639;DHT22;1329;51.384;7.122;2024-01-25T06:43:08;7.30;99.90
2639;DHT22;1329;51.384;7.122;2024-01-25T06:45:37;7.30;99.90
2639;DHT22;1329;51.384;7.122;2024-01-25T06:48:06;7.20;99.90
2639;DHT22;1329;51.384;7.122;2024-01-25T06:50:34;7.20;99.90
2639;DHT22;1329;51.384;7.122;2024-01-25T06:53:01;7.20;99.90
2639;DHT22;1329;51.384;7.122;2024-01-25T06:55:28;7.10;99.90
2639;DHT22;1329;51.384;7.122;2024-01-25T06:57:57;7.10;99.90
2639;DHT22;1329;51.384;7.122;2024-01-25T07:00:24;7.10;99.90
2639;DHT22;1329;51.384;7.122;2024-01-25T07:02:51;7.10;99.90
2639;DHT22;1329;51.384;7.122;2024-01-25T07:05:19;7.00;99.90
2639;DHT22;1329;51.384;7.122;2024-01-25T07:07:46;7.00;99.90
2639;DHT22;1329;51.384;7.122;2024-01-25T07:10:14;7.00;99.90
2639;DHT22;1329;51.384;7.122;2024-01-25T07:12:41;7.00;99.90
2639;DHT22;1329;51.384;7.122;2024-01-25T07:15:10;7.00;99.90
2639;DHT22;1329;51.384;7.122;2024-01-25T07:17:37;7.00;99.90
2639;DHT22;1329;51.384;7.122;2024-01-25T07:20:08;7.00;99.90
2639;DHT22;1329;51.384;7.122;2024-01-25T07:22:36;7.00;99.90
2639;DHT22;1329;51.384;7.122;2024-01-25T07:25:05;7.00;99.90
2639;DHT22;1329;51.384;7.122;2024-01-25T07:27:33;7.00;99.90
2639;DHT22;1329;51.384;7.122;2024-01-25T07:30:01;7.00;99.90
2639;DHT22;1329;51.384;7.122;2024-01-25T07:32:30;7.00;99.90
2639;DHT22;1329;51.384;7.122;2024-01-25T07:34:58;7.00;99.90
2639;DHT22;1329;51.384;7.122;2024-01-25T07:37:25;7.00;99.90
2639;DHT22;1329;51.384;7.122;2024-01-25T07:39:52;7.00;99.90
2639;DHT22;1329;51.384;7.122;2024-01-25T07:42:20;7.00;99.90
2639;DHT22;1329;51.384;7.122;2024-01-25T07:44:47;7.00;99.90
2639;DHT22;1329;51.384;7.122;2024-01-25T07:47:14;7.00;99.90
2639;DHT22;1329;51.384;7.122;2024-01-25T07:49:43;7.00;99.90
2639;DHT22;1329;51.384;7.122;2024-01-25T07:52:10;7.00;99.90
2639;DHT22;1329;51.384;7.122;2024-01-25T07:54:37;7.00;99.90
2639;DHT22;1329;51.384;7.122;2024-01-25T07:57:04;7.00;99.90
2639;DHT22;1329;51.384;7.122;2024-01-25T07:59:32;7.00;99.90
2639;DHT22;1329;51.384;7.122;2024-01-25T08:01:59;7.00;99.90
2639;DHT22;1329;51.384;7.122;2024-01-25T08:04:26;7.00;99.90
2639;DHT22;1329;51.384;7.122;2024-01-25T08:06:55;7.00;99.90
2639;DHT22;1329;51.384;7.122;2024-01-25T08:09:26;7.00;99.90
2639;DHT22;1329;51.384;7.122;2024-01-25T08:11:53;7.10;99.90
2639;DHT22;1329;51.384;7.122;2024-01-25T08:14:20;7.10;99.90
2639;DHT22;1329;51.384;7.122;2024-01-25T08:16:47;7.20;99.90
2639;DHT22;1329;51.384;7.122;2024-01-25T08:19:16;7.20;99.90
2639;DHT22;1329;51.384;7.122;2024-01-25T08:21:43;7.20;99.90
2639;DHT22;1329;51.384;7.122;2024-01-25T08:24:15;7.30;99.90
2639;DHT22;1329;51.384;7.122;2024-01-25T08:26:42;7.30;99.90
2639;DHT22;1329;51.384;7.122;2024-01-25T08:29:09;7.30;99.90
2639;DHT22;1329;51.384;7.122;2024-01-25T08:31:37;7.40;99.90
2639;DHT22;1329;51.384;7.122;2024-01-25T08:34:04;7.40;99.90
2639;DHT22;1329;51.384;7.122;2024-01-25T08:36:31;7.40;99.90
2639;DHT22;1329;51.384;7.122;2024-01-25T08:38:59;7.50;99.90
2639;DHT22;1329;51.384;7.122;2024-01-25T08:41:27;7.60;99.90
2639;DHT22;1329;51.384;7.122;2024-01-25T08:43:55;7.60;99.90
2639;DHT22;1329;51.384;7.122;2024-01-25T08:46:22;7.70;99.90
2639;DHT22;1329;51.384;7.122;2024-01-25T08:48:49;7.70;99.90
2639;DHT22;1329;51.384;7.122;2024-01-25T08:51:17;7.80;99.90
2639;DHT22;1329;51.384;7.122;2024-01-25T08:53:44;7.80;99.90
2639;DHT22;1329;51.384;7.122;2024-01-25T08:56:11;7.90;99.90
2639;DHT22;1329;51.384;7.122;2024-01-25T08:58:40;8.00;99.90
2639;DHT22;1329;51.384;7.122;2024-01-25T09:01:07;8.00;99.90
2639;DHT22;1329;51.384;7.122;2024-01-25T09:03:34;8.00;99.90
2639;DHT22;1329;51.384;7.122;2024-01-25T09:06:02;8.10;99.90
2639;DHT22;1329;51.384;7.122;2024-01-25T09:08:31;8.10;99.90
2639;DHT22;1329;51.384;7.122;2024-01-25T09:10:58;8.20;99.90
2639;DHT22;1329;51.384;7.122;2024-01-25T09:13:26;8.20;99.90
2639;DHT22;1329;51.384;7.122;2024-01-25T09:15:55;8.30;99.90
2639;DHT22;1329;51.384;7.122;2024-01-25T09:18:22;8.30;99.90
2639;DHT22;1329;51.384;7.122;2024-01-25T09:20:50;8.40;99.90
2639;DHT22;1329;51.384;7.122;2024-01-25T09:23:17;8.50;99.90
2639;DHT22;1329;51.384;7.122;2024-01-25T09:25:45;8.50;99.90
2639;DHT22;1329;51.384;7.122;2024-01-25T09:28:13;8.50;99.90
2639;DHT22;1329;51.384;7.122;2024-01-25T09:30:40;8.60;99.90
2639;DHT22;1329;51.384;7.122;2024-01-25T09:33:10;8.70;99.90
2639;DHT22;1329;51.384;7.122;2024-01-25T09:35:37;8.80;99.90
2639;DHT22;1329;51.384;7.122;2024-01-25T09:38:04;8.80;99.90
2639;DHT22;1329;51.384;7.122;2024-01-25T09:40:31;8.90;99.90
2639;DHT22;1329;51.384;7.122;2024-01-25T09:43:01;8.90;99.90
2639;DHT22;1329;51.384;7.122;2024-01-25T09:45:30;9.00;99.90
2639;DHT22;1329;51.384;7.122;2024-01-25T09:47:58;9.10;99.90
2639;DHT22;1329;51.384;7.122;2024-01-25T09:50:26;9.10;99.90
2639;DHT22;1329;51.384;7.122;2024-01-25T09:52:59;9.10;99.90
2639;DHT22;1329;51.384;7.122;2024-01-25T09:55:27;9.20;99.90
2639;DHT22;1329;51.384;7.122;2024-01-25T09:57:55;9.30;99.90
2639;DHT22;1329;51.384;7.122;2024-01-25T10:00:22;9.30;99.90
2639;DHT22;1329;51.384;7.122;2024-01-25T10:02:50;9.40;99.90
2639;DHT22;1329;51.384;7.122;2024-01-25T10:05:18;9.40;99.90
2639;DHT22;1329;51.384;7.122;2024-01-25T10:07:47;9.50;99.90
2639;DHT22;1329;51.384;7.122;2024-01-25T10:10:14;9.60;99.90
2639;DHT22;1329;51.384;7.122;2024-01-25T10:12:42;9.60;99.90
2639;DHT22;1329;51.384;7.122;2024-01-25T10:15:10;9.60;99.90
2639;DHT22;1329;51.384;7.122;2024-01-25T10:17:38;9.70;99.90
2639;DHT22;1329;51.384;7.122;2024-01-25T10:20:06;9.70;99.90
2639;DHT22;1329;51.384;7.122;2024-01-25T10:22:37;9.70;99.90
2639;DHT22;1329;51.384;7.122;2024-01-25T10:25:12;9.70;99.90
2639;DHT22;1329;51.384;7.122;2024-01-25T10:27:40;9.80;99.90
2639;DHT22;1329;51.384;7.122;2024-01-25T10:30:10;9.80;99.90
2639;DHT22;1329;51.384;7.122;2024-01-25T10:32:39;9.80;99.90
2639;DHT22;1329;51.384;7.122;2024-01-25T10:35:08;9.80;99.90
2639;DHT22;1329;51.384;7.122;2024-01-25T10:37:38;9.80;99.90
2639;DHT22;1329;51.384;7.122;2024-01-25T10:40:10;9.80;99.90
2639;DHT22;1329;51.384;7.122;2024-01-25T10:42:38;9.80;99.90
2639;DHT22;1329;51.384;7.122;2024-01-25T10:45:07;9.70;99.90
2639;DHT22;1329;51.384;7.122;2024-01-25T10:47:36;9.90;99.90
2639;DHT22;1329;51.384;7.122;2024-01-25T10:50:05;9.90;99.90
2639;DHT22;1329;51.384;7.122;2024-01-25T10:52:36;9.90;99.90
2639;DHT22;1329;51.384;7.122;2024-01-25T10:55:05;9.90;99.90
2639;DHT22;1329;51.384;7.122;2024-01-25T10:57:35;10.00;99.90
2639;DHT22;1329;51.384;7.122;2024-01-25T11:00:06;10.00;99.90
2639;DHT22;1329;51.384;7.122;2024-01-25T11:02:35;10.00;99.90
2639;DHT22;1329;51.384;7.122;2024-01-25T11:05:06;10.00;99.90
2639;DHT22;1329;51.384;7.122;2024-01-25T11:07:45;10.10;99.90
2639;DHT22;1329;51.384;7.122;2024-01-25T11:10:16;10.10;99.90
2639;DHT22;1329;51.384;7.122;2024-01-25T11:12:51;10.10;99.90
2639;DHT22;1329;51.384;7.122;2024-01-25T11:15:22;10.10;99.90
2639;DHT22;1329;51.384;7.122;2024-01-25T11:17:52;10.20;99.90
2639;DHT22;1329;51.384;7.122;2024-01-25T11:20:26;10.20;99.90
2639;DHT22;1329;51.384;7.122;2024-01-25T11:22:58;10.20;99.90
2639;DHT22;1329;51.384;7.122;2024-01-25T11:25:29;10.20;99.90
2639;DHT22;1329;51.384;7.122;2024-01-25T11:27:57;10.30;99.90
2639;DHT22;1329;51.384;7.122;2024-01-25T11:30:25;10.30;99.90
2639;DHT22;1329;51.384;7.122;2024-01-25T11:32:53;10.30;99.90
2639;DHT22;1329;51.384;7.122;2024-01-25T11:35:21;10.30;99.90
2639;DHT22;1329;51.384;7.122;2024-01-25T11:37:49;10.40;99.90
2639;DHT22;1329;51.384;7.122;2024-01-25T11:40:18;10.40;99.90
2639;DHT22;1329;51.384;7.122;2024-01-25T11:42:49;10.40;99.90
2639;DHT22;1329;51.384;7.122;2024-01-25T11:45:16;10.40;99.90
2639;DHT22;1329;51.384;7.122;2024-01-25T11:47:45;10.50;99.90
2639;DHT22;1329;51.384;7.122;2024-01-25T11:50:13;10.40;99.90
2639;DHT22;1329;51.384;7.122;2024-01-25T11:52:40;10.50;99.90
2639;DHT22;1329;51.384;7.122;2024-01-25T11:55:09;10.50;99.90
2639;DHT22;1329;51.384;7.122;2024-01-25T11:57:38;10.50;99.90
2639;DHT22;1329;51.384;7.122;2024-01-25T12:00:13;10.50;99.90
2639;DHT22;1329;51.384;7.122;2024-01-25T12:02:42;10.60;99.90
2639;DHT22;1329;51.384;7.122;2024-01-25T12:05:10;10.60;99.90
2639;DHT22;1329;51.384;7.122;2024-01-25T12:07:39;10.60;99.90
2639;DHT22;1329;51.384;7.122;2024-01-25T12:10:08;10.60;99.90
2639;DHT22;1329;51.384;7.122;2024-01-25T12:12:37;10.60;99.90
2639;DHT22;1329;51.384;7.122;2024-01-25T12:15:06;10.70;99.90
2639;DHT22;1329;51.384;7.122;2024-01-25T12:17:35;10.70;99.90
2639;DHT22;1329;51.384;7.122;2024-01-25T12:20:05;10.70;99.90
2639;DHT22;1329;51.384;7.122;2024-01-25T12:22:36;10.70;99.90
2639;DHT22;1329;51.384;7.122;2024-01-25T12:25:07;10.70;99.90
2639;DHT22;1329;51.384;7.122;2024-01-25T12:27:35;10.70;99.90
2639;DHT22;1329;51.384;7.122;2024-01-25T12:30:04;10.70;99.90
2639;DHT22;1329;51.384;7.122;2024-01-25T12:32:35;10.70;99.90
2639;DHT22;1329;51.384;7.122;2024-01-25T12:35:03;10.70;99.90
2639;DHT22;1329;51.384;7.122;2024-01-25T12:37:32;10.70;99.90
2639;DHT22;1329;51.384;7.122;2024-01-25T12:39:59;10.70;99.90
2639;DHT22;1329;51.384;7.122;2024-01-25T12:42:26;10.70;99.90
2639;DHT22;1329;51.384;7.122;2024-01-25T12:44:54;10.80;99.90
2639;DHT22;1329;51.384;7.122;2024-01-25T12:47:21;10.70;99.90
2639;DHT22;1329;51.384;7.122;2024-01-25T12:49:50;10.70;99.90
2639;DHT22;1329;51.384;7.122;2024-01-25T12:52:17;10.80;99.90
2639;DHT22;1329;51.384;7.122;2024-01-25T12:54:45;10.70;99.90
2639;DHT22;1329;51.384;7.122;2024-01-25T12:57:12;10.70;99.90
2639;DHT22;1329;51.384;7.122;2024-01-25T12:59:39;10.70;99.90
2639;DHT22;1329;51.384;7.122;2024-01-25T13:02:07;10.60;99.90
2639;DHT22;1329;51.384;7.122;2024-01-25T13:04:35;10.60;99.90
2639;DHT22;1329;51.384;7.122;2024-01-25T13:07:03;10.60;99.90
2639;DHT22;1329;51.384;7.122;2024-01-25T13:09:31;10.70;99.90
2639;DHT22;1329;51.384;7.122;2024-01-25T13:12:00;10.70;99.90
2639;DHT22;1329;51.384;7.122;2024-01-25T13:14:27;10.70;99.90
2639;DHT22;1329;51.384;7.122;2024-01-25T13:16:54;10.70;99.90
2639;DHT22;1329;51.384;7.122;2024-01-25T13:19:22;10.70;99.90
2639;DHT22;1329;51.384;7.122;2024-01-25T13:21:49;10.80;99.90
2639;DHT22;1329;51.384;7.122;2024-01-25T13:24:18;10.70;99.90
2639;DHT22;1329;51.384;7.122;2024-01-25T13:26:45;10.80;99.90
2639;DHT22;1329;51.384;7.122;2024-01-25T13:29:12;10.70;99.90
2639;DHT22;1329;51.384;7.122;2024-01-25T13:31:39;10.70;99.90
2639;DHT22;1329;51.384;7.122;2024-01-25T13:34:07;10.70;99.90
2639;DHT22;1329;51.384;7.122;2024-01-25T13:36:34;10.60;99.90
2639;DHT22;1329;51.384;7.122;2024-01-25T13:39:01;10.60;99.90
2639;DHT22;1329;51.384;7.122;2024-01-25T13:41:30;10.60;99.90
2639;DHT22;1329;51.384;7.122;2024-01-25T13:43:58;10.60;99.90
2639;DHT22;1329;51.384;7.122;2024-01-25T13:46:26;10.60;99.90
2639;DHT22;1329;51.384;7.122;2024-01-25T13:48:53;10.50;99.90
2639;DHT22;1329;51.384;7.122;2024-01-25T13:51:21;10.50;99.90
2639;DHT22;1329;51.384;7.122;2024-01-25T13:53:48;10.40;99.90
2639;DHT22;1329;51.384;7.122;2024-01-25T13:56:16;10.40;99.90
2639;DHT22;1329;51.384;7.122;2024-01-25T13:58:45;10.40;99.90
2639;DHT22;1329;51.384;7.122;2024-01-25T14:01:12;10.40;99.90
2639;DHT22;1329;51.384;7.122;2024-01-25T14:03:39;10.40;99.90
2639;DHT22;1329;51.384;7.122;2024-01-25T14:06:07;10.40;99.90
2639;DHT22;1329;51.384;7.122;2024-01-25T14:08:35;10.40;99.90
2639;DHT22;1329;51.384;7.122;2024-01-25T14:11:03;10.40;99.90
2639;DHT22;1329;51.384;7.122;2024-01-25T14:13:31;10.40;99.90
2639;DHT22;1329;51.384;7.122;2024-01-25T14:16:00;10.30;99.90
2639;DHT22;1329;51.384;7.122;2024-01-25T14:18:28;10.30;99.90
2639;DHT22;1329;51.384;7.122;2024-01-25T14:20:55;10.30;99.90
2639;DHT22;1329;51.384;7.122;2024-01-25T14:23:22;10.30;99.90
2639;DHT22;1329;51.384;7.122;2024-01-25T14:25:49;10.30;99.90
2639;DHT22;1329;51.384;7.122;2024-01-25T14:28:17;10.30;99.90
2639;DHT22;1329;51.384;7.122;2024-01-25T14:30:44;10.30;99.90
2639;DHT22;1329;51.384;7.122;2024-01-25T14:33:14;10.40;99.90
2639;DHT22;1329;51.384;7.122;2024-01-25T14:35:41;10.40;99.90
2639;DHT22;1329;51.384;7.122;2024-01-25T14:38:09;10.40;99.90
2639;DHT22;1329;51.384;7.122;2024-01-25T14:40:36;10.40;99.90
2639;DHT22;1329;51.384;7.122;2024-01-25T14:43:04;10.40;99.90
2639;DHT22;1329;51.384;7.122;2024-01-25T14:45:31;10.50;99.90
2639;DHT22;1329;51.384;7.122;2024-01-25T14:48:01;10.50;99.90
2639;DHT22;1329;51.384;7.122;2024-01-25T14:50:30;10.50;99.90
2639;DHT22;1329;51.384;7.122;2024-01-25T14:52:58;10.60;99.90
2639;DHT22;1329;51.384;7.122;2024-01-25T14:55:25;10.50;99.90
2639;DHT22;1329;51.384;7.122;2024-01-25T14:57:53;10.50;99.90
2639;DHT22;1329;51.384;7.122;2024-01-25T15:00:20;10.50;99.90
2639;DHT22;1329;51.384;7.122;2024-01-25T15:02:47;10.50;99.90
2639;DHT22;1329;51.384;7.122;2024-01-25T15:05:15;10.50;99.90
2639;DHT22;1329;51.384;7.122;2024-01-25T15:07:43;10.50;99.90
2639;DHT22;1329;51.384;7.122;2024-01-25T15:10:12;10.40;99.90
2639;DHT22;1329;51.384;7.122;2024-01-25T15:12:39;10.40;99.90
2639;DHT22;1329;51.384;7.122;2024-01-25T15:15:08;10.40;99.90
2639;DHT22;1329;51.384;7.122;2024-01-25T15:17:35;10.40;99.90
2639;DHT22;1329;51.384;7.122;2024-01-25T15:20:04;10.30;99.90
2639;DHT22;1329;51.384;7.122;2024-01-25T15:22:32;10.30;99.90
2639;DHT22;1329;51.384;7.122;2024-01-25T15:25:01;10.30;99.90
2639;DHT22;1329;51.384;7.122;2024-01-25T15:27:28;10.30;99.90
2639;DHT22;1329;51.384;7.122;2024-01-25T15:29:56;10.30;99.90
2639;DHT22;1329;51.384;7.122;2024-01-25T15:32:25;10.30;99.90
2639;DHT22;1329;51.384;7.122;2024-01-25T15:34:52;10.30;99.90
2639;DHT22;1329;51.384;7.122;2024-01-25T15:37:19;10.30;99.90
2639;DHT22;1329;51.384;7.122;2024-01-25T15:39:47;10.30;99.90
2639;DHT22;1329;51.384;7.122;2024-01-25T15:42:15;10.30;99.90
2639;DHT22;1329;51.384;7.122;2024-01-25T15:44:43;10.30;99.90
2639;DHT22;1329;51.384;7.122;2024-01-25T15:47:10;10.30;99.90
2639;DHT22;1329;51.384;7.122;2024-01-25T15:49:38;10.30;99.90
2639;DHT22;1329;51.384;7.122;2024-01-25T15:52:06;10.30;99.90
2639;DHT22;1329;51.384;7.122;2024-01-25T15:54:33;10.30;99.90
2639;DHT22;1329;51.384;7.122;2024-01-25T15:57:00;10.30;99.90
2639;DHT22;1329;51.384;7.122;2024-01-25T15:59:29;10.30;99.90
2639;DHT22;1329;51.384;7.122;2024-01-25T16:01:56;10.30;99.90
2639;DHT22;1329;51.384;7.122;2024-01-25T16:04:24;10.30;99.90
2639;DHT22;1329;51.384;7.122;2024-01-25T16:06:51;10.30;99.90
2639;DHT22;1329;51.384;7.122;2024-01-25T16:09:18;10.30;99.90
2639;DHT22;1329;51.384;7.122;2024-01-25T16:11:45;10.30;99.90
2639;DHT22;1329;51.384;7.122;2024-01-25T16:14:12;10.30;99.90